sensor_id;sensor_type;location;lat;lon;timestamp;pressure;altitude;pressure_sealevel;temperature;humidity
34124;BME280;13153;52.316;21.166;2023-07-28T00:02:10;99544.59;;;20.69;50.14
34124;BME280;13153;52.316;21.166;2023-07-28T00:04:37;99547.13;;;20.73;50.07
34124;BME280;13153;52.316;21.166;2023-07-28T00:07:04;99546.53;;;20.64;50.43
34124;BME280;13153;52.316;21.166;2023-07-28T00:09:30;99551.03;;;20.62;50.33
34124;BME280;13153;52.316;21.166;2023-07-28T00:12:00;99543.22;;;20.54;50.48
34124;BME280;13153;52.316;21.166;2023-07-28T00:14:27;99538.97;;;20.47;50.70
34124;BME280;13153;52.316;21.166;2023-07-28T00:16:56;99538.75;;;20.55;50.67
34124;BME280;13153;52.316;21.166;2023-07-28T00:19:22;99541.22;;;20.62;50.27
34124;BME280;13153;52.316;21.166;2023-07-28T00:21:49;99541.34;;;20.58;50.28
34124;BME280;13153;52.316;21.166;2023-07-28T00:24:16;99542.47;;;20.49;50.88
34124;BME280;13153;52.316;21.166;2023-07-28T00:26:42;99542.16;;;20.60;50.60
34124;BME280;13153;52.316;21.166;2023-07-28T00:29:08;99536.53;;;20.36;51.23
34124;BME280;13153;52.316;21.166;2023-07-28T00:31:34;99530.16;;;20.43;50.81
34124;BME280;13153;52.316;21.166;2023-07-28T00:34:02;99531.78;;;20.49;50.79
34124;BME280;13153;52.316;21.166;2023-07-28T00:36:28;99537.28;;;20.43;51.00
34124;BME280;13153;52.316;21.166;2023-07-28T00:38:54;99533.91;;;20.35;51.17
34124;BME280;13153;52.316;21.166;2023-07-28T00:41:20;99535.00;;;20.28;51.63
34124;BME280;13153;52.316;21.166;2023-07-28T00:43:46;99531.31;;;20.32;51.43
34124;BME280;13153;52.316;21.166;2023-07-28T00:46:12;99526.59;;;20.43;51.31
34124;BME280;13153;52.316;21.166;2023-07-28T00:48:40;99532.78;;;20.45;50.89
34124;BME280;13153;52.316;21.166;2023-07-28T00:51:07;99525.59;;;20.47;50.81
34124;BME280;13153;52.316;21.166;2023-07-28T00:53:33;99525.81;;;20.39;51.12
34124;BME280;13153;52.316;21.166;2023-07-28T00:56:01;99531.78;;;20.49;50.99
34124;BME280;13153;52.316;21.166;2023-07-28T00:58:27;99522.44;;;20.31;51.45
34124;BME280;13153;52.316;21.166;2023-07-28T01:00:53;99521.38;;;20.37;51.41
34124;BME280;13153;52.316;21.166;2023-07-28T01:03:21;99516.31;;;20.26;51.80
34124;BME280;13153;52.316;21.166;2023-07-28T01:06:15;99516.09;;;20.35;51.27
34124;BME280;13153;52.316;21.166;2023-07-28T01:09:06;99508.91;;;20.37;51.43
34124;BME280;13153;52.316;21.166;2023-07-28T01:11:35;99514.31;;;20.34;51.50
34124;BME280;13153;52.316;21.166;2023-07-28T01:14:00;99506.34;;;20.33;51.48
34124;BME280;13153;52.316;21.166;2023-07-28T01:16:26;99506.13;;;20.42;51.29
34124;BME280;13153;52.316;21.166;2023-07-28T01:18:52;99496.31;;;20.42;51.25
34124;BME280;13153;52.316;21.166;2023-07-28T01:21:26;99495.38;;;20.45;51.12
34124;BME280;13153;52.316;21.166;2023-07-28T01:26:39;99492.66;;;20.47;51.14
34124;BME280;13153;52.316;21.166;2023-07-28T01:29:06;99496.38;;;20.41;51.17
34124;BME280;13153;52.316;21.166;2023-07-28T01:31:32;99487.44;;;20.42;51.28
34124;BME280;13153;52.316;21.166;2023-07-28T01:33:58;99481.25;;;20.40;51.29
34124;BME280;13153;52.316;21.166;2023-07-28T01:36:23;99480.25;;;20.44;51.00
34124;BME280;13153;52.316;21.166;2023-07-28T01:38:49;99479.84;;;20.25;51.73
34124;BME280;13153;52.316;21.166;2023-07-28T01:41:15;99480.56;;;20.32;51.53
34124;BME280;13153;52.316;21.166;2023-07-28T01:43:41;99476.16;;;20.29;51.78
34124;BME280;13153;52.316;21.166;2023-07-28T01:46:07;99481.25;;;20.40;51.34
34124;BME280;13153;52.316;21.166;2023-07-28T01:48:33;99473.50;;;20.29;51.54
34124;BME280;13153;52.316;21.166;2023-07-28T01:50:59;99458.91;;;20.42;51.21
34124;BME280;13153;52.316;21.166;2023-07-28T01:53:25;99469.53;;;20.46;51.16
34124;BME280;13153;52.316;21.166;2023-07-28T01:55:51;99471.34;;;20.43;51.09
34124;BME280;13153;52.316;21.166;2023-07-28T01:58:16;99465.94;;;20.47;50.95
34124;BME280;13153;52.316;21.166;2023-07-28T02:00:42;99464.09;;;20.49;50.79
34124;BME280;13153;52.316;21.166;2023-07-28T02:03:08;99449.81;;;20.50;51.04
34124;BME280;13153;52.316;21.166;2023-07-28T02:05:33;99452.44;;;20.51;51.05
34124;BME280;13153;52.316;21.166;2023-07-28T02:07:59;99465.97;;;20.45;51.08
34124;BME280;13153;52.316;21.166;2023-07-28T02:10:27;99465.97;;;20.45;51.07
34124;BME280;13153;52.316;21.166;2023-07-28T02:12:53;99465.19;;;20.41;51.41
34124;BME280;13153;52.316;21.166;2023-07-28T02:15:19;99462.78;;;20.31;51.72
34124;BME280;13153;52.316;21.166;2023-07-28T02:17:45;99462.59;;;20.37;51.68
34124;BME280;13153;52.316;21.166;2023-07-28T02:20:11;99466.09;;;20.40;51.52
34124;BME280;13153;52.316;21.166;2023-07-28T02:22:39;99459.38;;;20.24;51.78
34124;BME280;13153;52.316;21.166;2023-07-28T02:25:06;99452.13;;;20.29;51.77
34124;BME280;13153;52.316;21.166;2023-07-28T02:27:32;99463.78;;;20.27;51.70
34124;BME280;13153;52.316;21.166;2023-07-28T02:29:57;99461.09;;;20.27;51.52
34124;BME280;13153;52.316;21.166;2023-07-28T02:32:23;99468.16;;;20.29;51.78
34124;BME280;13153;52.316;21.166;2023-07-28T02:34:49;99464.34;;;20.39;51.42
34124;BME280;13153;52.316;21.166;2023-07-28T02:37:16;99454.59;;;20.37;51.56
34124;BME280;13153;52.316;21.166;2023-07-28T02:39:42;99455.63;;;20.31;51.47
34124;BME280;13153;52.316;21.166;2023-07-28T02:42:07;99445.69;;;20.36;51.54
34124;BME280;13153;52.316;21.166;2023-07-28T02:44:33;99443.25;;;20.29;51.70
34124;BME280;13153;52.316;21.166;2023-07-28T02:46:59;99446.94;;;20.23;51.75
34124;BME280;13153;52.316;21.166;2023-07-28T02:49:24;99454.16;;;20.21;52.09
34124;BME280;13153;52.316;21.166;2023-07-28T02:51:50;99456.72;;;20.24;51.85
34124;BME280;13153;52.316;21.166;2023-07-28T02:54:16;99456.00;;;20.19;51.84
34124;BME280;13153;52.316;21.166;2023-07-28T02:56:42;99449.53;;;20.26;51.69
34124;BME280;13153;52.316;21.166;2023-07-28T02:59:07;99455.88;;;20.22;51.96
34124;BME280;13153;52.316;21.166;2023-07-28T03:01:33;99458.50;;;20.24;51.66
34124;BME280;13153;52.316;21.166;2023-07-28T03:04:02;99453.00;;;20.30;51.64
34124;BME280;13153;52.316;21.166;2023-07-28T03:06:28;99445.03;;;20.28;51.82
34124;BME280;13153;52.316;21.166;2023-07-28T03:08:54;99450.19;;;20.34;51.92
34124;BME280;13153;52.316;21.166;2023-07-28T03:11:20;99447.22;;;20.14;52.34
34124;BME280;13153;52.316;21.166;2023-07-28T03:13:46;99450.66;;;20.19;52.26
34124;BME280;13153;52.316;21.166;2023-07-28T03:16:12;99440.44;;;20.33;51.97
34124;BME280;13153;52.316;21.166;2023-07-28T03:18:37;99443.94;;;20.35;52.04
34124;BME280;13153;52.316;21.166;2023-07-28T03:21:03;99442.19;;;20.34;52.08
34124;BME280;13153;52.316;21.166;2023-07-28T03:23:29;99437.59;;;20.41;52.07
34124;BME280;13153;52.316;21.166;2023-07-28T03:25:55;99428.13;;;20.28;52.45
34124;BME280;13153;52.316;21.166;2023-07-28T03:28:21;99421.63;;;20.38;52.26
34124;BME280;13153;52.316;21.166;2023-07-28T03:30:47;99428.03;;;20.31;52.28
34124;BME280;13153;52.316;21.166;2023-07-28T03:33:12;99424.19;;;20.42;52.16
34124;BME280;13153;52.316;21.166;2023-07-28T03:35:38;99419.91;;;20.35;52.57
34124;BME280;13153;52.316;21.166;2023-07-28T03:38:04;99426.34;;;20.28;52.77
34124;BME280;13153;52.316;21.166;2023-07-28T03:40:30;99422.81;;;20.26;52.82
34124;BME280;13153;52.316;21.166;2023-07-28T03:42:57;99415.41;;;20.06;53.14
34124;BME280;13153;52.316;21.166;2023-07-28T03:45:23;99410.34;;;20.27;52.85
34124;BME280;13153;52.316;21.166;2023-07-28T03:47:48;99411.13;;;20.30;52.75
34124;BME280;13153;52.316;21.166;2023-07-28T03:50:14;99414.56;;;20.35;52.42
34124;BME280;13153;52.316;21.166;2023-07-28T03:52:40;99423.41;;;20.37;52.44
34124;BME280;13153;52.316;21.166;2023-07-28T03:55:06;99414.56;;;20.35;52.36
34124;BME280;13153;52.316;21.166;2023-07-28T03:57:32;99411.44;;;20.21;52.95
34124;BME280;13153;52.316;21.166;2023-07-28T03:59:57;99408.81;;;20.20;53.16
34124;BME280;13153;52.316;21.166;2023-07-28T04:02:23;99408.50;;;20.29;53.19
34124;BME280;13153;52.316;21.166;2023-07-28T04:04:57;99409.16;;;20.38;52.82
34124;BME280;13153;52.316;21.166;2023-07-28T04:07:24;99418.59;;;20.19;53.12
34124;BME280;13153;52.316;21.166;2023-07-28T04:09:49;99418.41;;;20.25;53.17
34124;BME280;13153;52.316;21.166;2023-07-28T04:12:15;99421.88;;;20.29;53.24
34124;BME280;13153;52.316;21.166;2023-07-28T04:14:41;99415.38;;;20.39;52.97
34124;BME280;13153;52.316;21.166;2023-07-28T04:17:06;99409.06;;;20.41;52.81
34124;BME280;13153;52.316;21.166;2023-07-28T04:19:33;99408.94;;;20.46;53.02
34124;BME280;13153;52.316;21.166;2023-07-28T04:22:00;99400.91;;;20.46;53.07
34124;BME280;13153;52.316;21.166;2023-07-28T04:24:26;99406.09;;;20.52;52.75
34124;BME280;13153;52.316;21.166;2023-07-28T04:26:53;99403.28;;;20.57;52.66
34124;BME280;13153;52.316;21.166;2023-07-28T04:29:19;99399.53;;;20.62;52.37
34124;BME280;13153;52.316;21.166;2023-07-28T04:31:45;99399.78;;;20.55;52.79
34124;BME280;13153;52.316;21.166;2023-07-28T04:34:11;99396.78;;;20.65;52.50
34124;BME280;13153;52.316;21.166;2023-07-28T04:36:36;99393.31;;;20.62;52.62
34124;BME280;13153;52.316;21.166;2023-07-28T04:39:02;99385.56;;;20.53;52.72
34124;BME280;13153;52.316;21.166;2023-07-28T04:41:29;99391.00;;;20.50;52.41
34124;BME280;13153;52.316;21.166;2023-07-28T04:43:55;99384.78;;;20.49;52.85
34124;BME280;13153;52.316;21.166;2023-07-28T04:46:21;99385.03;;;20.71;52.12
34124;BME280;13153;52.316;21.166;2023-07-28T04:48:46;99383.59;;;20.87;51.90
34124;BME280;13153;52.316;21.166;2023-07-28T04:51:12;99378.00;;;20.95;51.63
34124;BME280;13153;52.316;21.166;2023-07-28T04:53:38;99380.16;;;21.12;51.23
34124;BME280;13153;52.316;21.166;2023-07-28T04:56:04;99382.16;;;21.05;51.15
34124;BME280;13153;52.316;21.166;2023-07-28T04:58:30;99381.41;;;21.00;51.53
34124;BME280;13153;52.316;21.166;2023-07-28T05:00:55;99387.06;;;21.19;51.04
34124;BME280;13153;52.316;21.166;2023-07-28T05:03:21;99376.22;;;21.23;51.03
34124;BME280;13153;52.316;21.166;2023-07-28T05:05:47;99372.69;;;21.23;50.60
34124;BME280;13153;52.316;21.166;2023-07-28T05:08:13;99369.44;;;21.12;51.23
34124;BME280;13153;52.316;21.166;2023-07-28T05:10:40;99375.31;;;21.24;50.63
34124;BME280;13153;52.316;21.166;2023-07-28T05:13:06;99376.88;;;21.02;51.12
34124;BME280;13153;52.316;21.166;2023-07-28T05:15:31;99371.19;;;21.13;51.11
34124;BME280;13153;52.316;21.166;2023-07-28T05:17:57;99366.63;;;21.16;50.80
34124;BME280;13153;52.316;21.166;2023-07-28T05:20:23;99370.88;;;21.23;50.86
34124;BME280;13153;52.316;21.166;2023-07-28T05:22:48;99367.13;;;21.29;50.67
34124;BME280;13153;52.316;21.166;2023-07-28T05:25:14;99377.16;;;21.22;50.86
34124;BME280;13153;52.316;21.166;2023-07-28T05:27:41;99361.78;;;21.29;50.62
34124;BME280;13153;52.316;21.166;2023-07-28T05:30:08;99370.53;;;21.34;50.52
34124;BME280;13153;52.316;21.166;2023-07-28T05:32:33;99375.88;;;21.34;50.63
34124;BME280;13153;52.316;21.166;2023-07-28T05:34:59;99363.59;;;21.53;50.10
34124;BME280;13153;52.316;21.166;2023-07-28T05:37:25;99367.00;;;21.58;50.03
34124;BME280;13153;52.316;21.166;2023-07-28T05:39:51;99359.16;;;21.52;50.12
34124;BME280;13153;52.316;21.166;2023-07-28T05:42:16;99355.97;;;21.67;50.01
34124;BME280;13153;52.316;21.166;2023-07-28T05:44:42;99361.50;;;21.88;49.74
34124;BME280;13153;52.316;21.166;2023-07-28T05:47:08;99356.78;;;21.94;49.06
34124;BME280;13153;52.316;21.166;2023-07-28T05:49:35;99351.16;;;22.02;49.10
34124;BME280;13153;52.316;21.166;2023-07-28T05:52:00;99356.25;;;22.10;49.02
34124;BME280;13153;52.316;21.166;2023-07-28T05:54:26;99355.66;;;22.00;48.80
34124;BME280;13153;52.316;21.166;2023-07-28T05:56:52;99365.44;;;22.02;48.71
34124;BME280;13153;52.316;21.166;2023-07-28T05:59:18;99364.63;;;21.99;49.13
34124;BME280;13153;52.316;21.166;2023-07-28T06:01:44;99363.69;;;22.01;49.16
34124;BME280;13153;52.316;21.166;2023-07-28T06:04:10;99357.34;;;22.04;48.95
34124;BME280;13153;52.316;21.166;2023-07-28T06:06:36;99364.28;;;22.10;49.05
34124;BME280;13153;52.316;21.166;2023-07-28T06:09:02;99357.88;;;22.14;49.03
34124;BME280;13153;52.316;21.166;2023-07-28T06:11:28;99357.59;;;22.21;49.02
34124;BME280;13153;52.316;21.166;2023-07-28T06:13:53;99368.38;;;22.20;48.78
34124;BME280;13153;52.316;21.166;2023-07-28T06:16:20;99364.09;;;22.14;48.78
34124;BME280;13153;52.316;21.166;2023-07-28T06:18:45;99370.28;;;21.91;49.71
34124;BME280;13153;52.316;21.166;2023-07-28T06:21:11;99365.00;;;21.90;49.70
34124;BME280;13153;52.316;21.166;2023-07-28T06:23:37;99366.56;;;22.20;49.14
34124;BME280;13153;52.316;21.166;2023-07-28T06:26:03;99360.03;;;22.27;48.83
34124;BME280;13153;52.316;21.166;2023-07-28T06:28:28;99355.84;;;22.44;48.74
34124;BME280;13153;52.316;21.166;2023-07-28T06:30:56;99368.00;;;22.05;49.37
34124;BME280;13153;52.316;21.166;2023-07-28T06:33:22;99359.91;;;22.07;49.17
34124;BME280;13153;52.316;21.166;2023-07-28T06:35:48;99359.47;;;22.43;48.57
34124;BME280;13153;52.316;21.166;2023-07-28T06:38:14;99359.41;;;22.44;48.62
34124;BME280;13153;52.316;21.166;2023-07-28T06:40:39;99357.50;;;22.48;48.48
34124;BME280;13153;52.316;21.166;2023-07-28T06:43:05;99365.13;;;22.35;48.83
34124;BME280;13153;52.316;21.166;2023-07-28T06:45:33;99367.34;;;22.47;48.75
34124;BME280;13153;52.316;21.166;2023-07-28T06:47:59;99361.34;;;22.62;48.75
34124;BME280;13153;52.316;21.166;2023-07-28T06:50:25;99362.63;;;22.76;48.00
34124;BME280;13153;52.316;21.166;2023-07-28T06:52:50;99365.22;;;22.79;48.02
34124;BME280;13153;52.316;21.166;2023-07-28T06:55:17;99361.63;;;22.78;48.04
34124;BME280;13153;52.316;21.166;2023-07-28T06:57:44;99354.63;;;22.52;48.58
34124;BME280;13153;52.316;21.166;2023-07-28T07:00:11;99357.41;;;22.26;49.24
34124;BME280;13153;52.316;21.166;2023-07-28T07:02:37;99346.94;;;22.65;48.78
34124;BME280;13153;52.316;21.166;2023-07-28T07:05:03;99350.56;;;22.87;48.44
34124;BME280;13153;52.316;21.166;2023-07-28T07:07:30;99348.31;;;22.98;48.02
34124;BME280;13153;52.316;21.166;2023-07-28T07:09:55;99347.47;;;22.98;48.12
34124;BME280;13153;52.316;21.166;2023-07-28T07:12:21;99343.25;;;23.13;48.08
34124;BME280;13153;52.316;21.166;2023-07-28T07:14:47;99343.19;;;23.14;48.02
34124;BME280;13153;52.316;21.166;2023-07-28T07:17:13;99339.84;;;23.09;47.99
34124;BME280;13153;52.316;21.166;2023-07-28T07:19:39;99334.19;;;23.15;47.98
34124;BME280;13153;52.316;21.166;2023-07-28T07:22:05;99340.63;;;23.11;48.27
34124;BME280;13153;52.316;21.166;2023-07-28T07:24:32;99339.25;;;23.23;48.19
34124;BME280;13153;52.316;21.166;2023-07-28T07:26:58;99349.06;;;23.02;48.65
34124;BME280;13153;52.316;21.166;2023-07-28T07:29:24;99345.72;;;23.17;48.78
34124;BME280;13153;52.316;21.166;2023-07-28T07:31:50;99356.72;;;23.33;48.98
34124;BME280;13153;52.316;21.166;2023-07-28T07:34:20;99357.38;;;22.72;50.69
34124;BME280;13153;52.316;21.166;2023-07-28T07:36:47;99365.16;;;22.57;52.22
34124;BME280;13153;52.316;21.166;2023-07-28T07:39:13;99372.31;;;22.56;52.52
34124;BME280;13153;52.316;21.166;2023-07-28T07:41:39;99375.69;;;22.15;54.66
34124;BME280;13153;52.316;21.166;2023-07-28T07:44:05;99381.09;;;22.38;54.43
34124;BME280;13153;52.316;21.166;2023-07-28T07:46:30;99373.81;;;22.42;55.42
34124;BME280;13153;52.316;21.166;2023-07-28T07:48:56;99372.06;;;22.40;55.90
34124;BME280;13153;52.316;21.166;2023-07-28T07:51:23;99371.34;;;22.35;55.90
34124;BME280;13153;52.316;21.166;2023-07-28T07:53:48;99367.63;;;22.39;55.69
34124;BME280;13153;52.316;21.166;2023-07-28T07:56:15;99362.50;;;22.33;56.51
34124;BME280;13153;52.316;21.166;2023-07-28T07:58:40;99363.78;;;22.23;56.96
34124;BME280;13153;52.316;21.166;2023-07-28T08:01:06;99367.16;;;22.28;57.67
34124;BME280;13153;52.316;21.166;2023-07-28T08:03:32;99370.66;;;22.30;57.38
34124;BME280;13153;52.316;21.166;2023-07-28T08:05:58;99377.66;;;22.10;57.57
34124;BME280;13153;52.316;21.166;2023-07-28T08:08:24;99368.75;;;22.09;57.62
34124;BME280;13153;52.316;21.166;2023-07-28T08:10:52;99370.69;;;21.81;58.51
34124;BME280;13153;52.316;21.166;2023-07-28T08:13:18;99372.97;;;21.91;58.70
34124;BME280;13153;52.316;21.166;2023-07-28T08:15:45;99358.25;;;22.03;58.39
34124;BME280;13153;52.316;21.166;2023-07-28T08:18:13;99364.09;;;22.14;58.43
34124;BME280;13153;52.316;21.166;2023-07-28T08:20:39;99368.69;;;22.11;58.46
34124;BME280;13153;52.316;21.166;2023-07-28T08:23:05;99370.41;;;22.13;58.45
34124;BME280;13153;52.316;21.166;2023-07-28T08:25:31;99369.53;;;22.13;58.86
34124;BME280;13153;52.316;21.166;2023-07-28T08:27:56;99368.00;;;22.05;59.34
34124;BME280;13153;52.316;21.166;2023-07-28T08:30:22;99368.13;;;22.01;59.20
34124;BME280;13153;52.316;21.166;2023-07-28T08:32:48;99371.91;;;21.95;59.65
34124;BME280;13153;52.316;21.166;2023-07-28T08:35:14;99373.19;;;21.85;59.76
34124;BME280;13153;52.316;21.166;2023-07-28T08:37:40;99372.63;;;21.75;60.34
34124;BME280;13153;52.316;21.166;2023-07-28T08:40:07;99376.91;;;21.81;60.26
34124;BME280;13153;52.316;21.166;2023-07-28T08:42:40;99375.44;;;21.96;60.46
34124;BME280;13153;52.316;21.166;2023-07-28T08:45:07;99369.38;;;21.92;60.54
34124;BME280;13153;52.316;21.166;2023-07-28T08:47:37;99358.56;;;22.19;59.99
34124;BME280;13153;52.316;21.166;2023-07-28T08:50:04;99362.50;;;22.33;59.25
34124;BME280;13153;52.316;21.166;2023-07-28T08:52:31;99352.47;;;22.38;59.27
34124;BME280;13153;52.316;21.166;2023-07-28T08:54:57;99353.09;;;22.22;59.37
34124;BME280;13153;52.316;21.166;2023-07-28T08:57:23;99350.06;;;22.07;59.83
34124;BME280;13153;52.316;21.166;2023-07-28T08:59:49;99355.09;;;22.17;60.13
34124;BME280;13153;52.316;21.166;2023-07-28T09:02:17;99353.50;;;22.11;60.43
34124;BME280;13153;52.316;21.166;2023-07-28T09:04:45;99360.63;;;22.35;60.09
34124;BME280;13153;52.316;21.166;2023-07-28T09:07:11;99361.91;;;22.49;59.63
34124;BME280;13153;52.316;21.166;2023-07-28T09:09:39;99358.97;;;22.55;59.64
34124;BME280;13153;52.316;21.166;2023-07-28T09:12:07;99363.19;;;22.38;60.22
34124;BME280;13153;52.316;21.166;2023-07-28T09:14:36;99356.19;;;22.34;60.33
34124;BME280;13153;52.316;21.166;2023-07-28T09:17:11;99357.69;;;22.18;60.50
34124;BME280;13153;52.316;21.166;2023-07-28T09:19:51;99347.97;;;22.16;60.56
34124;BME280;13153;52.316;21.166;2023-07-28T09:22:18;99348.84;;;22.16;61.18
34124;BME280;13153;52.316;21.166;2023-07-28T09:24:46;99342.78;;;22.11;61.38
34124;BME280;13153;52.316;21.166;2023-07-28T09:27:26;99343.66;;;22.12;61.66
34124;BME280;13153;52.316;21.166;2023-07-28T09:29:55;99343.44;;;22.18;61.46
34124;BME280;13153;52.316;21.166;2023-07-28T09:32:32;99339.28;;;22.09;61.49
34124;BME280;13153;52.316;21.166;2023-07-28T09:35:10;99336.03;;;22.24;61.51
34124;BME280;13153;52.316;21.166;2023-07-28T09:37:42;99343.09;;;22.27;61.17
34124;BME280;13153;52.316;21.166;2023-07-28T09:40:12;99345.00;;;22.23;61.15
34124;BME280;13153;52.316;21.166;2023-07-28T09:42:49;99349.09;;;22.33;60.80
34124;BME280;13153;52.316;21.166;2023-07-28T09:45:17;99331.16;;;22.35;61.31
34124;BME280;13153;52.316;21.166;2023-07-28T09:47:46;99337.19;;;22.40;61.34
34124;BME280;13153;52.316;21.166;2023-07-28T09:50:16;99336.03;;;22.48;61.65
34124;BME280;13153;52.316;21.166;2023-07-28T09:52:47;99320.06;;;22.66;61.66
34124;BME280;13153;52.316;21.166;2023-07-28T09:55:17;99332.59;;;22.66;61.21
34124;BME280;13153;52.316;21.166;2023-07-28T09:57:50;99327.88;;;22.72;60.98
34124;BME280;13153;52.316;21.166;2023-07-28T10:00:22;99322.19;;;22.58;61.56
34124;BME280;13153;52.316;21.166;2023-07-28T10:02:49;99326.72;;;22.80;60.55
34124;BME280;13153;52.316;21.166;2023-07-28T10:05:16;99319.94;;;22.93;60.41
34124;BME280;13153;52.316;21.166;2023-07-28T10:07:45;99315.75;;;23.08;60.38
34124;BME280;13153;52.316;21.166;2023-07-28T10:10:13;99320.91;;;23.12;60.67
34124;BME280;13153;52.316;21.166;2023-07-28T10:12:54;99306.91;;;23.05;60.35
34124;BME280;13153;52.316;21.166;2023-07-28T10:15:30;99314.75;;;22.88;60.60
34124;BME280;13153;52.316;21.166;2023-07-28T10:17:58;99316.03;;;22.78;60.44
34124;BME280;13153;52.316;21.166;2023-07-28T10:25:35;99307.97;;;22.56;61.74
34124;BME280;13153;52.316;21.166;2023-07-28T10:28:02;99308.88;;;22.33;62.65
34124;BME280;13153;52.316;21.166;2023-07-28T10:30:28;99315.59;;;22.45;62.49
34124;BME280;13153;52.316;21.166;2023-07-28T10:32:55;99311.28;;;22.63;62.05
34124;BME280;13153;52.316;21.166;2023-07-28T10:35:26;99302.19;;;22.67;62.13
34124;BME280;13153;52.316;21.166;2023-07-28T10:37:55;99305.91;;;22.63;62.51
34124;BME280;13153;52.316;21.166;2023-07-28T10:42:55;99307.53;;;22.90;61.85
34124;BME280;13153;52.316;21.166;2023-07-28T10:45:26;99302.47;;;23.04;61.38
34124;BME280;13153;52.316;21.166;2023-07-28T10:47:54;99295.00;;;23.11;60.90
34124;BME280;13153;52.316;21.166;2023-07-28T10:50:22;99300.25;;;23.14;60.65
34124;BME280;13153;52.316;21.166;2023-07-28T10:52:49;99302.59;;;23.22;60.08
34124;BME280;13153;52.316;21.166;2023-07-28T10:55:18;99298.63;;;22.66;61.72
34124;BME280;13153;52.316;21.166;2023-07-28T10:57:45;99293.59;;;23.02;60.64
34124;BME280;13153;52.316;21.166;2023-07-28T11:00:14;99298.72;;;23.09;60.20
34124;BME280;13153;52.316;21.166;2023-07-28T11:02:49;99291.25;;;23.15;59.74
34124;BME280;13153;52.316;21.166;2023-07-28T11:05:25;99290.06;;;23.22;59.83
34124;BME280;13153;52.316;21.166;2023-07-28T11:07:55;99292.34;;;23.31;60.47
34124;BME280;13153;52.316;21.166;2023-07-28T11:10:22;99290.66;;;23.29;60.51
34124;BME280;13153;52.316;21.166;2023-07-28T11:12:51;99287.81;;;23.12;60.22
34124;BME280;13153;52.316;21.166;2023-07-28T11:15:18;99289.72;;;23.30;60.05
34124;BME280;13153;52.316;21.166;2023-07-28T11:17:47;99287.97;;;23.29;60.18
34124;BME280;13153;52.316;21.166;2023-07-28T11:20:18;99289.13;;;23.44;59.91
34124;BME280;13153;52.316;21.166;2023-07-28T11:22:51;99278.69;;;23.58;59.68
34124;BME280;13153;52.316;21.166;2023-07-28T11:25:17;99289.03;;;23.67;59.12
34124;BME280;13153;52.316;21.166;2023-07-28T11:27:45;99282.50;;;23.73;59.27
34124;BME280;13153;52.316;21.166;2023-07-28T11:30:13;99277.50;;;23.84;58.61
34124;BME280;13153;52.316;21.166;2023-07-28T11:32:45;99273.75;;;23.88;58.50
34124;BME280;13153;52.316;21.166;2023-07-28T11:35:13;99275.56;;;23.87;57.46
34124;BME280;13153;52.316;21.166;2023-07-28T11:37:42;99281.81;;;23.88;57.66
34124;BME280;13153;52.316;21.166;2023-07-28T11:40:10;99280.00;;;23.88;57.93
34124;BME280;13153;52.316;21.166;2023-07-28T11:42:51;99286.91;;;23.94;58.08
34124;BME280;13153;52.316;21.166;2023-07-28T11:45:19;99273.88;;;23.85;58.12
34124;BME280;13153;52.316;21.166;2023-07-28T11:48:06;99272.81;;;23.68;58.45
34124;BME280;13153;52.316;21.166;2023-07-28T11:50:39;99268.13;;;23.74;58.62
34124;BME280;13153;52.316;21.166;2023-07-28T11:53:06;99276.81;;;23.60;59.11
34124;BME280;13153;52.316;21.166;2023-07-28T11:55:35;99262.19;;;23.86;58.59
34124;BME280;13153;52.316;21.166;2023-07-28T11:58:02;99267.91;;;24.17;57.93
34124;BME280;13153;52.316;21.166;2023-07-28T12:00:35;99263.34;;;24.38;57.39
34124;BME280;13153;52.316;21.166;2023-07-28T12:03:08;99260.19;;;24.66;57.07
34124;BME280;13153;52.316;21.166;2023-07-28T12:05:37;99258.66;;;24.79;56.67
34124;BME280;13153;52.316;21.166;2023-07-28T12:08:03;99253.72;;;24.87;56.50
34124;BME280;13153;52.316;21.166;2023-07-28T12:10:30;99249.84;;;24.76;56.20
34124;BME280;13153;52.316;21.166;2023-07-28T12:13:07;99254.97;;;24.99;56.02
34124;BME280;13153;52.316;21.166;2023-07-28T12:15:33;99251.72;;;25.10;55.63
34124;BME280;13153;52.316;21.166;2023-07-28T12:18:14;99256.88;;;25.31;55.50
34124;BME280;13153;52.316;21.166;2023-07-28T12:20:49;99249.00;;;25.44;55.45
34124;BME280;13153;52.316;21.166;2023-07-28T12:23:21;99244.88;;;25.54;54.65
34124;BME280;13153;52.316;21.166;2023-07-28T12:25:48;99249.00;;;25.61;54.37
34124;BME280;13153;52.316;21.166;2023-07-28T12:28:14;99250.75;;;25.45;54.15
34124;BME280;13153;52.316;21.166;2023-07-28T12:30:40;99251.94;;;25.57;54.59
34124;BME280;13153;52.316;21.166;2023-07-28T12:33:07;99256.94;;;25.64;55.00
34124;BME280;13153;52.316;21.166;2023-07-28T12:35:34;99247.03;;;25.65;54.29
34124;BME280;13153;52.316;21.166;2023-07-28T12:38:04;99250.38;;;25.70;53.81
34124;BME280;13153;52.316;21.166;2023-07-28T12:40:31;99250.03;;;25.76;53.00
34124;BME280;13153;52.316;21.166;2023-07-28T12:42:59;99254.69;;;25.90;52.71
34124;BME280;13153;52.316;21.166;2023-07-28T12:45:25;99242.25;;;26.03;52.76
34124;BME280;13153;52.316;21.166;2023-07-28T12:47:55;99250.78;;;26.11;52.17
34124;BME280;13153;52.316;21.166;2023-07-28T12:50:22;99247.47;;;26.06;50.89
34124;BME280;13153;52.316;21.166;2023-07-28T12:52:49;99252.25;;;26.01;50.91
34124;BME280;13153;52.316;21.166;2023-07-28T12:55:16;99253.91;;;25.88;50.98
34124;BME280;13153;52.316;21.166;2023-07-28T12:57:43;99255.25;;;25.79;51.03
34124;BME280;13153;52.316;21.166;2023-07-28T13:00:10;99268.19;;;25.73;50.67
34124;BME280;13153;52.316;21.166;2023-07-28T13:02:43;99263.25;;;25.63;50.92